This is the latest recevied weather packets stored in our database for station/object LA6LOA. If no packets are shown the sender has not sent any weather packets the latest 10 day(s).
| Time | Temp. | Humidity | Pressure | Rain* | Wind** | Luminosity | Snow |
|---|---|---|---|---|---|---|---|
| 1777722381 | 4.44° C | 100% | 998.5 hPa | 0 mm | - | - | - |
| 1777722081 | 3.89° C | 100% | 998.4 hPa | 0 mm | - | - | - |
| 1777721781 | 3.89° C | 100% | 998.3 hPa | 0 mm | - | - | - |
| 1777721481 | 4.44° C | 100% | 998.2 hPa | 0 mm | - | - | - |
| 1777721181 | 4.44° C | 100% | 998 hPa | 0 mm | - | - | - |
| 1777720881 | 4.44° C | 100% | 997.9 hPa | 0 mm | - | - | - |
| 1777720581 | 4.44° C | 100% | 997.8 hPa | 0 mm | - | - | - |
| 1777720281 | 4.44° C | 100% | 997.6 hPa | 0 mm | - | - | - |
| 1777719981 | 4.44° C | 100% | 997.4 hPa | 0 mm | - | - | - |
| 1777719681 | 4.44° C | 100% | 997.2 hPa | 0 mm | - | - | - |
| 1777719381 | 4.44° C | 100% | 997.1 hPa | 0 mm | - | - | - |
| 1777719081 | 4.44° C | 100% | 996.9 hPa | 0 mm | - | - | - |
| 1777718781 | 4.44° C | 100% | 996.7 hPa | 0 mm | - | - | - |
| 1777718481 | 5° C | 100% | 996.3 hPa | 0 mm | - | - | - |
| 1777718181 | 5° C | 100% | 996.1 hPa | 0 mm | - | - | - |
| 1777717881 | 4.44° C | 100% | 995.9 hPa | 0 mm | - | - | - |
| 1777717581 | 4.44° C | 100% | 995.7 hPa | 0 mm | - | - | - |
| 1777717281 | 3.89° C | 100% | 995.5 hPa | 0 mm | - | - | - |
| 1777716981 | 3.33° C | 100% | 995.4 hPa | 0 mm | - | - | - |
| 1777716681 | 3.33° C | 100% | 995.1 hPa | 0 mm | - | - | - |
| 1777716381 | 2.78° C | 100% | 995 hPa | 0 mm | - | - | - |
| 1777716081 | 4.44° C | 100% | 994.5 hPa | 0 mm | - | - | - |
| 1777715781 | 4.44° C | 100% | 994.1 hPa | 0 mm | - | - | - |
| 1777715481 | 4.44° C | 100% | 994 hPa | 0 mm | - | - | - |
| 1777715181 | 4.44° C | 100% | 993.8 hPa | 0 mm | - | - | - |
* Rain latest hour (hover to see other rain measurements)
** Current wind speed in m/s (hover to see current wind gust speed)